createdAt,value
2018-09-30T00:01:52.226Z,4.50
2018-09-30T00:04:20.418Z,5.50
2018-09-30T00:06:48.586Z,8.70
2018-09-30T00:09:16.750Z,4.40
2018-09-30T00:11:44.898Z,4.67
2018-09-30T00:14:13.065Z,6.70
2018-09-30T00:16:41.229Z,4.87
2018-09-30T00:19:09.385Z,5.83
2018-09-30T00:21:37.888Z,5.13
2018-09-30T00:24:11.437Z,6.03
2018-09-30T00:26:44.891Z,5.07
2018-09-30T00:29:13.032Z,4.63
2018-09-30T00:31:41.185Z,4.87
2018-09-30T00:34:14.589Z,4.30
2018-09-30T00:36:42.745Z,4.90
2018-09-30T00:39:10.908Z,4.83
2018-09-30T00:41:39.080Z,8.47
2018-09-30T00:44:07.262Z,5.10
2018-09-30T00:46:35.466Z,5.23
2018-09-30T00:49:03.814Z,4.60
2018-09-30T00:51:32.373Z,4.20
2018-09-30T00:54:00.594Z,3.90
2018-09-30T00:56:29.014Z,4.13
2018-09-30T00:58:57.512Z,3.93
2018-09-30T01:01:25.951Z,4.73
2018-09-30T01:03:54.118Z,4.53
2018-09-30T01:06:22.729Z,4.83
2018-09-30T01:08:50.881Z,5.43
2018-09-30T01:11:19.377Z,4.73
2018-09-30T01:13:47.605Z,9.50
2018-09-30T01:16:15.749Z,4.60
2018-09-30T01:18:43.910Z,4.67
2018-09-30T01:21:12.124Z,5.23
2018-09-30T01:23:40.268Z,5.70
2018-09-30T01:26:08.442Z,4.63
2018-09-30T01:28:36.589Z,5.30
2018-09-30T01:31:04.827Z,5.17
2018-09-30T01:33:32.988Z,5.03
2018-09-30T01:36:01.145Z,5.00
2018-09-30T01:38:29.301Z,6.37
2018-09-30T01:40:57.462Z,5.47
2018-09-30T01:43:25.618Z,5.07
2018-09-30T01:45:53.877Z,5.33
2018-09-30T01:48:22.930Z,4.47
2018-09-30T01:50:51.108Z,5.17
2018-09-30T01:53:19.292Z,6.03
2018-09-30T01:55:47.719Z,6.27
2018-09-30T01:58:15.868Z,5.47
2018-09-30T02:00:44.032Z,4.83
2018-09-30T02:03:12.234Z,6.60
2018-09-30T02:05:40.974Z,5.30
2018-09-30T02:08:09.124Z,7.20
2018-09-30T02:10:37.327Z,7.70
2018-09-30T02:13:05.514Z,5.77
2018-09-30T02:15:33.857Z,7.87
2018-09-30T02:18:02.102Z,7.03
2018-09-30T02:20:30.260Z,5.87
2018-09-30T02:22:58.407Z,5.37
2018-09-30T02:25:26.589Z,6.47
2018-09-30T02:27:54.745Z,8.07
2018-09-30T02:30:22.901Z,8.60
2018-09-30T02:32:51.133Z,9.50
2018-09-30T02:35:19.289Z,6.20
2018-09-30T02:37:47.529Z,8.47
2018-09-30T02:40:16.020Z,6.30
2018-09-30T02:42:44.164Z,6.83
2018-09-30T02:45:12.353Z,8.43
2018-09-30T02:47:40.825Z,5.90
2018-09-30T02:50:09.055Z,6.57
2018-09-30T02:52:37.386Z,6.80
2018-09-30T02:55:05.629Z,5.50
2018-09-30T02:57:33.889Z,5.40
2018-09-30T03:00:02.051Z,6.43
2018-09-30T03:02:30.240Z,5.87
2018-09-30T03:04:58.470Z,7.33
2018-09-30T03:07:31.906Z,6.63
2018-09-30T03:10:00.072Z,6.50
2018-09-30T03:12:28.286Z,8.10
2018-09-30T03:14:56.497Z,5.80
2018-09-30T03:17:24.774Z,6.70
2018-09-30T03:19:52.941Z,6.93
2018-09-30T03:22:21.300Z,6.30
2018-09-30T03:24:49.533Z,6.67
2018-09-30T03:27:17.677Z,6.67
2018-09-30T03:29:45.861Z,8.80
2018-09-30T03:32:14.234Z,6.50
2018-09-30T03:34:42.533Z,6.30
2018-09-30T03:37:10.678Z,6.83
2018-09-30T03:39:39.201Z,6.97
2018-09-30T03:42:07.529Z,7.13
2018-09-30T03:44:35.708Z,8.63
2018-09-30T03:47:03.875Z,6.13
2018-09-30T03:49:32.024Z,5.83
2018-09-30T03:52:00.388Z,8.30
2018-09-30T03:54:28.566Z,6.97
2018-09-30T03:56:56.816Z,7.10
2018-09-30T03:59:25.353Z,7.83
2018-09-30T04:01:53.573Z,8.03
2018-09-30T04:04:21.756Z,7.67
2018-09-30T04:06:50.072Z,6.30
2018-09-30T04:09:18.307Z,8.37
2018-09-30T04:11:46.584Z,7.17
2018-09-30T04:14:14.870Z,7.60
2018-09-30T04:16:43.061Z,6.90
2018-09-30T04:19:11.309Z,6.07
2018-09-30T04:21:39.485Z,5.93
2018-09-30T04:24:10.583Z,6.50
2018-09-30T04:26:40.059Z,7.00
2018-09-30T04:29:08.716Z,7.10
2018-09-30T04:31:36.892Z,6.13
2018-09-30T04:34:05.339Z,8.30
2018-09-30T04:36:34.521Z,6.13
2018-09-30T04:39:02.797Z,6.70
2018-09-30T04:41:31.292Z,6.47
2018-09-30T04:43:59.933Z,6.37
2018-09-30T04:46:28.442Z,9.40
2018-09-30T04:48:56.729Z,8.60
2018-09-30T04:51:24.956Z,8.03
2018-09-30T04:53:53.212Z,6.97
2018-09-30T04:56:21.744Z,6.47
2018-09-30T04:58:49.926Z,6.27
2018-09-30T05:01:18.149Z,7.07
2018-09-30T05:03:46.334Z,6.93
2018-09-30T05:06:14.484Z,7.80
2018-09-30T05:08:42.831Z,6.10
2018-09-30T05:11:11.306Z,6.23
2018-09-30T05:13:39.530Z,6.53
2018-09-30T05:16:07.859Z,5.93
2018-09-30T05:18:35.981Z,7.83
2018-09-30T05:21:04.158Z,6.53
2018-09-30T05:23:32.335Z,6.80
2018-09-30T05:26:00.521Z,7.07
2018-09-30T05:28:28.885Z,6.50
2018-09-30T05:30:57.059Z,7.10
2018-09-30T05:33:25.268Z,6.17
2018-09-30T05:35:53.509Z,7.20
2018-09-30T05:38:21.685Z,9.17
2018-09-30T05:40:50.528Z,6.70
2018-09-30T05:43:18.761Z,6.73
2018-09-30T05:45:46.924Z,8.33
2018-09-30T05:48:15.117Z,8.70
2018-09-30T05:50:43.405Z,5.40
2018-09-30T05:53:11.600Z,7.80
2018-09-30T05:55:39.837Z,5.90
2018-09-30T05:58:08.179Z,5.40
2018-09-30T06:00:36.472Z,5.53
2018-09-30T06:03:04.653Z,6.60
2018-09-30T06:05:32.850Z,5.47
2018-09-30T06:08:01.028Z,6.90
2018-09-30T06:10:29.246Z,5.33
2018-09-30T06:12:57.906Z,5.20
2018-09-30T06:15:26.294Z,4.90
2018-09-30T06:17:54.471Z,4.60
2018-09-30T06:20:22.690Z,4.07
2018-09-30T06:22:50.848Z,4.53
2018-09-30T06:25:19.282Z,4.60
2018-09-30T06:27:47.529Z,3.97
2018-09-30T06:30:15.686Z,7.77
2018-09-30T06:32:43.886Z,3.83
2018-09-30T06:35:12.057Z,3.67
2018-09-30T06:37:40.373Z,3.87
2018-09-30T06:40:08.557Z,4.20
2018-09-30T06:42:36.713Z,3.70
2018-09-30T06:45:04.936Z,5.33
2018-09-30T06:47:33.129Z,3.53
2018-09-30T06:50:01.284Z,3.13
2018-09-30T06:52:29.477Z,3.60
2018-09-30T06:54:57.654Z,3.30
2018-09-30T06:57:26.184Z,4.40
2018-09-30T06:59:54.344Z,4.40
2018-09-30T07:02:22.580Z,3.20
2018-09-30T07:04:50.810Z,3.17
2018-09-30T07:07:18.906Z,3.17
2018-09-30T07:09:47.236Z,3.43
2018-09-30T07:12:15.377Z,2.77
2018-09-30T07:14:43.556Z,2.30
2018-09-30T07:17:12.077Z,2.30
2018-09-30T07:19:40.234Z,2.80
2018-09-30T07:22:08.509Z,6.70
2018-09-30T07:24:36.653Z,2.20
2018-09-30T07:27:04.825Z,3.00
2018-09-30T07:29:32.994Z,2.60
2018-09-30T07:32:01.169Z,3.53
2018-09-30T07:34:29.349Z,2.80
2018-09-30T07:36:57.497Z,3.60
2018-09-30T07:39:25.707Z,4.53
2018-09-30T07:41:53.873Z,4.33
2018-09-30T07:44:22.037Z,5.03
2018-09-30T07:46:50.288Z,3.10
2018-09-30T07:49:18.555Z,5.63
2018-09-30T07:51:46.778Z,6.77
2018-09-30T07:54:14.945Z,4.20
2018-09-30T07:56:43.137Z,5.00
2018-09-30T07:59:11.457Z,4.63
2018-09-30T08:01:39.619Z,3.70
2018-09-30T08:04:07.854Z,6.80
2018-09-30T08:06:36.017Z,4.20
2018-09-30T08:09:05.940Z,5.43
2018-09-30T08:11:34.107Z,3.43
2018-09-30T08:14:02.276Z,5.53
2018-09-30T08:16:30.510Z,3.50
2018-09-30T08:18:58.728Z,4.43
2018-09-30T08:21:26.906Z,4.03
2018-09-30T08:23:55.140Z,4.10
2018-09-30T08:26:23.569Z,2.90
2018-09-30T08:28:51.720Z,3.73
2018-09-30T08:31:20.028Z,2.93
2018-09-30T08:33:48.286Z,4.87
2018-09-30T08:36:16.550Z,2.93
2018-09-30T08:38:44.751Z,3.07
2018-09-30T08:41:13.371Z,3.63
2018-09-30T08:43:42.826Z,4.50
2018-09-30T08:46:11.030Z,8.20
2018-09-30T08:48:42.148Z,3.20
2018-09-30T08:51:10.680Z,4.17
2018-09-30T08:53:38.911Z,6.60
2018-09-30T08:56:07.913Z,3.20
2018-09-30T08:58:36.090Z,3.90
2018-09-30T09:01:04.357Z,3.80
2018-09-30T09:03:32.522Z,3.50
2018-09-30T09:06:01.566Z,4.87
2018-09-30T09:08:29.961Z,4.67
2018-09-30T09:10:58.181Z,5.30
2018-09-30T09:13:26.405Z,4.97
2018-09-30T09:15:54.569Z,3.53
2018-09-30T09:18:22.805Z,3.03
2018-09-30T09:20:51.001Z,3.53
2018-09-30T09:23:19.247Z,3.87
2018-09-30T09:25:47.412Z,4.47
2018-09-30T09:28:15.609Z,3.97
2018-09-30T09:30:43.868Z,3.40
2018-09-30T09:33:12.168Z,3.40
2018-09-30T09:35:40.281Z,2.60
2018-09-30T09:38:08.447Z,3.70
2018-09-30T09:40:36.596Z,6.57
2018-09-30T09:43:05.083Z,4.27
2018-09-30T09:45:33.246Z,3.47
2018-09-30T09:48:01.533Z,5.53
2018-09-30T09:50:29.786Z,3.60
2018-09-30T09:52:58.032Z,4.07
2018-09-30T09:55:26.238Z,7.00
2018-09-30T09:57:54.462Z,9.60
2018-09-30T10:00:28.045Z,5.80
2018-09-30T10:02:56.221Z,3.97
2018-09-30T10:05:24.485Z,3.10
2018-09-30T10:07:52.645Z,3.07
2018-09-30T10:10:20.914Z,3.10
2018-09-30T10:12:49.225Z,2.60
2018-09-30T10:15:17.463Z,3.17
2018-09-30T10:17:45.631Z,4.77
2018-09-30T10:20:14.109Z,4.40
2018-09-30T10:22:42.334Z,10.03
2018-09-30T10:25:10.563Z,7.97
2018-09-30T10:27:38.781Z,5.17
2018-09-30T10:30:07.023Z,5.97
2018-09-30T10:32:35.545Z,5.10
2018-09-30T10:35:03.721Z,4.33
2018-09-30T10:37:31.994Z,4.83
2018-09-30T10:40:00.219Z,3.03
2018-09-30T10:42:28.395Z,3.30
2018-09-30T10:44:56.568Z,5.37
2018-09-30T10:47:25.052Z,3.13
2018-09-30T10:49:53.386Z,3.30
2018-09-30T10:52:28.370Z,4.37
2018-09-30T10:54:56.641Z,20.70
2018-09-30T10:57:24.837Z,7.13
2018-09-30T10:59:53.080Z,2.83
2018-09-30T11:02:21.277Z,3.63
2018-09-30T11:04:49.497Z,3.10
2018-09-30T11:07:17.723Z,3.50
2018-09-30T11:09:46.145Z,4.23
2018-09-30T11:12:14.193Z,3.23
2018-09-30T11:14:42.457Z,3.07
2018-09-30T11:17:10.630Z,2.70
2018-09-30T11:19:38.889Z,4.53
2018-09-30T11:22:07.209Z,22.97
2018-09-30T11:24:35.389Z,7.13
2018-09-30T11:27:03.642Z,6.33
2018-09-30T11:29:31.846Z,5.07
2018-09-30T11:32:00.131Z,3.70
2018-09-30T11:34:28.235Z,3.10
2018-09-30T11:36:56.546Z,3.13
2018-09-30T11:39:24.738Z,3.70
2018-09-30T11:41:52.925Z,2.93
2018-09-30T11:44:21.128Z,3.10
2018-09-30T11:46:49.328Z,3.50
2018-09-30T11:49:17.549Z,3.40
2018-09-30T11:51:45.756Z,3.23
2018-09-30T11:54:14.058Z,5.10
2018-09-30T11:56:42.242Z,3.50
2018-09-30T11:59:10.434Z,5.33
2018-09-30T12:01:38.692Z,4.20
2018-09-30T12:04:07.453Z,3.87
2018-09-30T12:06:35.646Z,3.30
2018-09-30T12:09:05.298Z,4.20
2018-09-30T12:11:33.501Z,3.67
2018-09-30T12:14:01.724Z,4.20
2018-09-30T12:16:29.905Z,3.57
2018-09-30T12:18:58.128Z,4.60
2018-09-30T12:21:26.352Z,3.63
2018-09-30T12:23:54.524Z,4.00
2018-09-30T12:26:22.778Z,3.70
2018-09-30T12:28:51.004Z,4.90
2018-09-30T12:31:19.194Z,3.83
2018-09-30T12:33:47.474Z,4.40
2018-09-30T12:36:15.658Z,4.07
2018-09-30T12:38:43.974Z,4.97
2018-09-30T12:41:12.216Z,16.53
2018-09-30T12:43:41.425Z,15.80
2018-09-30T12:46:10.674Z,4.23
2018-09-30T12:48:41.009Z,4.47
2018-09-30T12:51:09.209Z,3.83
2018-09-30T12:53:37.445Z,3.97
2018-09-30T12:56:05.748Z,4.67
2018-09-30T12:58:34.149Z,4.30
2018-09-30T13:01:02.481Z,4.90
2018-09-30T13:03:30.729Z,5.63
2018-09-30T13:05:58.913Z,4.40
2018-09-30T13:08:27.141Z,4.35
2018-09-30T13:10:55.335Z,4.57
2018-09-30T13:13:23.644Z,4.17
2018-09-30T13:15:51.891Z,4.70
2018-09-30T13:18:20.115Z,4.80
2018-09-30T13:20:48.328Z,4.60
2018-09-30T13:23:16.613Z,4.80
2018-09-30T13:25:44.834Z,4.40
2018-09-30T13:28:13.073Z,4.25
2018-09-30T13:30:41.328Z,4.20
2018-09-30T13:33:09.594Z,4.10
2018-09-30T13:35:37.806Z,4.20
2018-09-30T13:38:05.998Z,3.37
2018-09-30T13:40:34.309Z,4.65
2018-09-30T13:43:02.422Z,4.62
2018-09-30T13:45:30.622Z,4.40
2018-09-30T13:47:58.841Z,3.98
2018-09-30T13:50:27.038Z,4.58
2018-09-30T13:52:55.228Z,4.05
2018-09-30T13:55:23.506Z,4.17
2018-09-30T13:57:51.677Z,4.17
2018-09-30T14:00:19.934Z,8.90
2018-09-30T14:02:48.146Z,11.18
2018-09-30T14:05:16.317Z,4.40
2018-09-30T14:07:44.503Z,4.50
2018-09-30T14:10:12.734Z,4.90
2018-09-30T14:12:40.907Z,4.65
2018-09-30T14:15:09.097Z,4.92
2018-09-30T14:17:37.369Z,19.10
2018-09-30T14:20:05.593Z,5.63
2018-09-30T14:22:33.816Z,4.45
2018-09-30T14:25:02.033Z,4.27
2018-09-30T14:27:30.303Z,4.03
2018-09-30T14:29:58.386Z,4.10
2018-09-30T14:32:26.619Z,4.33
2018-09-30T14:34:54.819Z,4.97
2018-09-30T14:37:23.056Z,3.80
2018-09-30T14:39:51.271Z,4.20
2018-09-30T14:42:19.436Z,4.17
2018-09-30T14:44:47.682Z,6.00
2018-09-30T14:47:15.886Z,4.60
2018-09-30T14:49:44.136Z,4.43
2018-09-30T14:52:12.332Z,4.50
2018-09-30T14:54:40.590Z,27.40
2018-09-30T14:57:08.762Z,5.60
2018-09-30T14:59:37.142Z,9.10
2018-09-30T15:02:05.338Z,15.53
2018-09-30T15:04:33.842Z,6.10
2018-09-30T15:07:02.027Z,6.83
2018-09-30T15:09:30.264Z,4.60
2018-09-30T15:11:58.522Z,5.43
2018-09-30T15:14:26.732Z,5.10
2018-09-30T15:16:54.944Z,114.57
2018-09-30T15:19:23.155Z,30.97
2018-09-30T15:21:51.433Z,6.87
2018-09-30T15:24:19.802Z,7.30
2018-09-30T15:26:47.983Z,6.27
2018-09-30T15:29:16.244Z,6.07
2018-09-30T15:31:44.573Z,5.17
2018-09-30T15:34:12.789Z,7.07
2018-09-30T15:36:40.972Z,9.07
2018-09-30T15:39:10.844Z,9.30
2018-09-30T15:41:39.377Z,10.30
2018-09-30T15:44:07.639Z,7.00
2018-09-30T15:46:35.849Z,7.60
2018-09-30T15:49:04.070Z,6.33
2018-09-30T15:51:32.261Z,6.17
2018-09-30T15:54:00.457Z,6.23
2018-09-30T15:56:28.751Z,3.97
2018-09-30T15:58:57.044Z,6.97
2018-09-30T16:01:25.200Z,9.30
2018-09-30T16:03:53.512Z,68.03
2018-09-30T16:06:21.697Z,12.07
2018-09-30T16:08:49.858Z,6.70
2018-09-30T16:11:18.041Z,6.50
2018-09-30T16:13:46.238Z,6.70
2018-09-30T16:16:14.708Z,7.57
2018-09-30T16:18:42.885Z,6.77
2018-09-30T16:21:11.140Z,6.57
2018-09-30T16:23:39.290Z,7.07
2018-09-30T16:26:07.934Z,9.33
2018-09-30T16:28:36.106Z,38.57
2018-09-30T16:31:04.298Z,37.10
2018-09-30T16:33:32.550Z,11.23
2018-09-30T16:36:00.726Z,7.10
2018-09-30T16:38:28.926Z,7.57
2018-09-30T16:40:57.203Z,7.73
2018-09-30T16:43:25.477Z,7.40
2018-09-30T16:45:53.773Z,9.27
2018-09-30T16:48:23.471Z,9.00
2018-09-30T16:50:52.065Z,12.73
2018-09-30T16:53:20.259Z,10.03
2018-09-30T16:55:48.504Z,13.63
2018-09-30T16:58:16.668Z,10.43
2018-09-30T17:00:44.850Z,10.43
2018-09-30T17:03:13.005Z,8.43
2018-09-30T17:05:41.287Z,8.53
2018-09-30T17:08:09.480Z,11.23
2018-09-30T17:10:37.728Z,10.50
2018-09-30T17:13:06.115Z,15.37
2018-09-30T17:15:34.299Z,14.03
2018-09-30T17:18:02.558Z,14.93
2018-09-30T17:20:30.848Z,13.60
2018-09-30T17:22:59.132Z,13.53
2018-09-30T17:25:27.398Z,13.77
2018-09-30T17:27:55.687Z,12.77
2018-09-30T17:30:23.893Z,13.83
2018-09-30T17:32:52.181Z,12.43
2018-09-30T17:35:20.381Z,11.33
2018-09-30T17:37:48.596Z,52.50
2018-09-30T17:40:16.766Z,74.10
2018-09-30T17:42:44.977Z,58.00
2018-09-30T17:45:13.185Z,21.70
2018-09-30T17:47:41.359Z,18.40
2018-09-30T17:50:09.537Z,16.00
2018-09-30T17:52:37.717Z,17.60
2018-09-30T17:55:06.073Z,17.23
2018-09-30T17:57:34.253Z,25.57
2018-09-30T18:00:02.625Z,24.57
2018-09-30T18:02:30.815Z,22.80
2018-09-30T18:04:59.093Z,29.40
2018-09-30T18:07:27.396Z,18.63
2018-09-30T18:09:55.572Z,18.87
2018-09-30T18:12:24.282Z,22.27
2018-09-30T18:14:52.749Z,53.70
2018-09-30T18:17:20.989Z,43.27
2018-09-30T18:19:49.172Z,35.80
2018-09-30T18:22:17.433Z,24.70
2018-09-30T18:24:45.620Z,40.03
2018-09-30T18:27:14.036Z,46.07
2018-09-30T18:29:42.272Z,27.60
2018-09-30T18:32:10.674Z,27.53
2018-09-30T18:34:38.946Z,27.93
2018-09-30T18:37:07.142Z,19.67
2018-09-30T18:39:35.437Z,16.33
2018-09-30T18:42:03.603Z,15.33
2018-09-30T18:44:31.805Z,15.33
2018-09-30T18:47:00.004Z,19.33
2018-09-30T18:49:28.643Z,16.43
2018-09-30T18:51:56.829Z,17.13
2018-09-30T18:54:25.037Z,17.07
2018-09-30T18:56:53.236Z,19.07
2018-09-30T18:59:21.493Z,19.00
2018-09-30T19:01:49.753Z,17.63
2018-09-30T19:04:17.955Z,21.50
2018-09-30T19:06:46.137Z,17.60
2018-09-30T19:09:14.373Z,17.53
2018-09-30T19:11:42.793Z,18.67
2018-09-30T19:14:11.179Z,15.07
2018-09-30T19:16:39.424Z,16.93
2018-09-30T19:19:07.863Z,15.40
2018-09-30T19:21:36.270Z,50.50
2018-09-30T19:24:04.542Z,35.23
2018-09-30T19:26:32.741Z,16.73
2018-09-30T19:29:00.938Z,74.20
2018-09-30T19:31:29.160Z,36.30
2018-09-30T19:33:57.444Z,22.27
2018-09-30T19:36:25.867Z,20.50
2018-09-30T19:38:54.054Z,18.40
2018-09-30T19:41:22.384Z,21.97
2018-09-30T19:43:50.587Z,21.33
2018-09-30T19:46:18.824Z,24.07
2018-09-30T19:48:47.215Z,23.00
2018-09-30T19:51:15.394Z,20.13
2018-09-30T19:53:43.639Z,22.00
2018-09-30T19:56:11.841Z,23.47
2018-09-30T19:58:40.086Z,21.97
2018-09-30T20:01:08.324Z,25.40
2018-09-30T20:03:36.476Z,30.90
2018-09-30T20:06:04.665Z,29.00
2018-09-30T20:08:33.057Z,33.80
2018-09-30T20:11:01.274Z,38.40
2018-09-30T20:13:29.709Z,37.17
2018-09-30T20:15:57.921Z,40.33
2018-09-30T20:18:26.785Z,42.97
2018-09-30T20:20:55.040Z,49.87
2018-09-30T20:23:23.157Z,73.20
2018-09-30T20:25:51.333Z,56.88
2018-09-30T20:28:19.595Z,65.87
2018-09-30T20:30:47.869Z,47.33
2018-09-30T20:33:16.119Z,32.60
2018-09-30T20:35:44.873Z,28.37
2018-09-30T20:38:13.045Z,29.67
2018-09-30T20:40:42.066Z,21.37
2018-09-30T20:43:10.244Z,22.43
2018-09-30T20:45:38.930Z,22.43
2018-09-30T20:48:07.513Z,18.53
2018-09-30T20:50:35.802Z,20.67
2018-09-30T20:53:04.018Z,20.80
2018-09-30T20:55:32.909Z,23.47
2018-09-30T20:58:01.195Z,20.47
2018-09-30T21:00:29.405Z,23.03
2018-09-30T21:02:57.691Z,23.70
2018-09-30T21:06:40.365Z,18.83
2018-09-30T21:09:11.960Z,19.33
2018-09-30T21:11:40.243Z,20.17
2018-09-30T21:14:08.509Z,17.70
2018-09-30T21:16:36.888Z,17.83
2018-09-30T21:19:06.255Z,21.10
2018-09-30T21:21:35.298Z,19.97
2018-09-30T21:24:04.624Z,18.60
2018-09-30T21:26:34.327Z,18.97
2018-09-30T21:29:04.056Z,21.60
2018-09-30T21:31:33.301Z,23.50
2018-09-30T21:34:02.713Z,23.00
2018-09-30T21:36:33.134Z,23.17
2018-09-30T21:39:02.210Z,20.90
2018-09-30T21:41:31.144Z,21.33
2018-09-30T21:44:00.300Z,21.17
2018-09-30T21:46:29.456Z,22.70
2018-09-30T21:48:58.871Z,20.70
2018-09-30T21:51:28.058Z,20.90
2018-09-30T21:53:57.030Z,20.50
2018-09-30T21:56:26.641Z,25.67
2018-09-30T21:58:56.107Z,37.30
2018-09-30T22:01:25.092Z,29.87
2018-09-30T22:03:53.215Z,22.97
2018-09-30T22:06:21.453Z,19.97
2018-09-30T22:08:49.719Z,25.30
2018-09-30T22:11:17.907Z,19.70
2018-09-30T22:13:46.117Z,19.93
2018-09-30T22:16:14.309Z,19.80
2018-09-30T22:18:42.839Z,20.63
2018-09-30T22:21:11.057Z,20.53
2018-09-30T22:23:39.400Z,20.57
2018-09-30T22:26:07.572Z,20.17
2018-09-30T22:28:35.804Z,21.30
2018-09-30T22:31:03.997Z,20.80
2018-09-30T22:33:32.176Z,20.63
2018-09-30T22:36:00.358Z,22.10
2018-09-30T22:38:28.724Z,19.97
2018-09-30T22:40:56.916Z,19.33
2018-09-30T22:43:25.146Z,18.80
2018-09-30T22:45:53.333Z,20.20
2018-09-30T22:48:22.606Z,20.57
2018-09-30T22:50:50.798Z,20.07
2018-09-30T22:53:19.023Z,18.60
2018-09-30T22:55:47.139Z,17.47
2018-09-30T22:58:15.344Z,18.13
2018-09-30T23:00:43.550Z,19.40
2018-09-30T23:03:11.742Z,17.77
2018-09-30T23:05:39.941Z,19.00
2018-09-30T23:08:08.190Z,19.60
2018-09-30T23:10:36.375Z,18.10
2018-09-30T23:13:04.545Z,18.40
2018-09-30T23:15:32.770Z,18.47
2018-09-30T23:18:00.985Z,17.57
2018-09-30T23:20:29.159Z,19.20
2018-09-30T23:22:57.361Z,17.27
2018-09-30T23:25:25.612Z,30.63
2018-09-30T23:27:53.771Z,25.97
2018-09-30T23:30:21.936Z,20.00
2018-09-30T23:32:50.148Z,22.10
2018-09-30T23:35:18.300Z,18.43
2018-09-30T23:37:46.500Z,17.50
2018-09-30T23:40:14.678Z,17.67
2018-09-30T23:42:42.934Z,19.33
2018-09-30T23:45:11.366Z,18.43
2018-09-30T23:47:39.961Z,17.80
2018-09-30T23:50:08.378Z,22.20
2018-09-30T23:52:36.551Z,18.10
2018-09-30T23:55:04.738Z,19.00
2018-09-30T23:57:32.905Z,17.67
